Time;durP1;ratioP1;P1;durP2;ratioP2;P2;SDS_P1;SDS_P2;PMS_P1;PMS_P2;Temp;Humidity;BMP_temperature;BMP_pressure;BME280_temperature;BME280_humidity;BME280_pressure;Samples;Min_cycle;Max_cycle;Signal;HPM_P1;HPM_P2
2023/10/08 00:00:45;;;;;;;5.47;1.80;;;20.10;73.90;;;;;;5080807;28;20032;-59
2023/10/08 00:03:13;;;;;;;8.27;1.70;;;20.10;73.80;;;;;;5081219;28;20438;-59
2023/10/08 00:05:39;;;;;;;3.78;1.75;;;20.10;73.80;;;;;;5079960;28;20028;-58
2023/10/08 00:08:06;;;;;;;3.30;1.60;;;20.10;73.80;;;;;;5083173;28;20020;-58
2023/10/08 00:10:39;;;;;;;5.38;1.83;;;20.10;73.90;;;;;;5078927;28;20063;-58
2023/10/08 00:13:09;;;;;;;3.58;1.55;;;20.10;73.60;;;;;;5078680;28;20018;-59
2023/10/08 00:15:49;;;;;;;4.30;1.65;;;20.10;73.70;;;;;;5078659;28;20387;-58
2023/10/08 00:18:15;;;;;;;3.35;1.70;;;20.10;73.70;;;;;;5082268;28;20093;-59
2023/10/08 00:20:55;;;;;;;3.90;1.77;;;20.00;73.60;;;;;;5080112;28;20025;-53
2023/10/08 00:23:22;;;;;;;3.85;1.77;;;20.10;73.60;;;;;;5080371;28;20036;-58
2023/10/08 00:25:50;;;;;;;3.53;1.70;;;20.10;73.50;;;;;;5080874;28;20549;-57
2023/10/08 00:28:17;;;;;;;2.78;1.50;;;20.10;73.50;;;;;;5082190;28;20085;-57
2023/10/08 00:30:44;;;;;;;5.13;1.70;;;20.00;73.50;;;;;;5081098;28;20025;-59
2023/10/08 00:33:11;;;;;;;4.18;1.60;;;20.10;73.50;;;;;;5080230;28;20023;-58
2023/10/08 00:35:39;;;;;;;2.15;1.50;;;20.10;73.50;;;;;;5079893;28;20067;-58
2023/10/08 00:38:14;;;;;;;2.92;1.50;;;20.00;73.80;;;;;;5082073;28;20020;-59
2023/10/08 00:40:40;;;;;;;6.70;1.60;;;20.00;73.70;;;;;;5079752;28;20377;-58
2023/10/08 00:43:10;;;;;;;4.45;1.50;;;20.00;74.40;;;;;;5081213;28;20143;-58
2023/10/08 00:45:45;;;;;;;3.92;1.67;;;20.10;74.20;;;;;;5081065;28;20079;-59
2023/10/08 00:48:16;;;;;;;2.88;1.75;;;20.00;74.20;;;;;;5081494;28;20107;-56
2023/10/08 00:50:43;;;;;;;3.92;1.50;;;20.00;73.60;;;;;;5082983;28;20031;-58
2023/10/08 00:53:21;;;;;;;4.57;1.67;;;20.00;73.40;;;;;;5084416;28;20050;-55
2023/10/08 00:55:53;;;;;;;7.65;1.60;;;20.00;74.10;;;;;;5083193;28;20036;-57
2023/10/08 00:58:25;;;;;;;4.22;1.60;;;20.00;73.60;;;;;;5083105;28;20120;-58
2023/10/08 01:00:59;;;;;;;4.07;1.70;;;20.00;74.00;;;;;;5082992;28;20060;-55
2023/10/08 01:03:27;;;;;;;3.10;1.45;;;20.00;73.40;;;;;;5082788;28;20078;-58
2023/10/08 01:05:55;;;;;;;2.72;1.50;;;20.00;73.40;;;;;;5082656;28;20060;-54
2023/10/08 01:08:36;;;;;;;11.32;1.80;;;20.00;73.50;;;;;;5084167;28;20036;-59
2023/10/08 01:11:49;;;;;;;3.17;1.60;;;20.00;73.40;;;;;;5085168;28;20016;-58
2023/10/08 01:14:20;;;;;;;4.72;1.65;;;20.00;73.60;;;;;;5093002;28;20020;-57
2023/10/08 01:16:47;;;;;;;13.23;1.95;;;20.10;73.50;;;;;;5085639;28;20016;-57
2023/10/08 01:19:20;;;;;;;16.20;2.28;;;20.10;73.80;;;;;;5079613;28;20950;-55
2023/10/08 01:21:46;;;;;;;13.98;2.30;;;20.10;73.70;;;;;;5080488;28;20032;-58
2023/10/08 01:24:16;;;;;;;9.23;1.90;;;20.00;73.70;;;;;;5083263;28;20561;-59
2023/10/08 01:26:42;;;;;;;6.47;1.83;;;20.00;73.70;;;;;;5082365;28;20020;-57
2023/10/08 01:29:09;;;;;;;11.68;2.00;;;20.10;73.70;;;;;;5083731;28;20078;-55
2023/10/08 01:31:36;;;;;;;9.70;2.00;;;20.00;73.70;;;;;;5084045;28;20020;-59
2023/10/08 01:34:04;;;;;;;8.63;1.90;;;20.00;73.70;;;;;;5082839;28;20023;-58
2023/10/08 01:36:31;;;;;;;7.15;1.58;;;20.00;73.60;;;;;;5084703;28;20025;-58
2023/10/08 01:38:57;;;;;;;9.95;1.90;;;20.00;73.60;;;;;;5079341;28;20039;-55
2023/10/08 01:41:30;;;;;;;6.10;1.92;;;20.00;73.70;;;;;;5080667;28;20036;-58
2023/10/08 01:43:58;;;;;;;6.70;1.52;;;20.00;73.60;;;;;;5089967;28;20059;-56
2023/10/08 01:46:26;;;;;;;6.35;1.73;;;20.00;73.30;;;;;;5081968;28;20020;-58
2023/10/08 01:49:08;;;;;;;10.50;1.63;;;20.00;73.50;;;;;;5087563;28;20541;-57
2023/10/08 01:51:38;;;;;;;9.93;1.90;;;20.00;73.60;;;;;;5091696;28;20488;-58
2023/10/08 01:54:10;;;;;;;6.95;1.90;;;19.90;73.50;;;;;;5088838;28;20020;-58
2023/10/08 01:56:41;;;;;;;7.15;1.60;;;20.00;73.10;;;;;;5069187;28;20020;-57
2023/10/08 01:59:13;;;;;;;9.00;2.15;;;19.90;73.20;;;;;;5090223;28;20077;-58
2023/10/08 02:01:41;;;;;;;7.82;1.70;;;19.90;73.10;;;;;;5082007;28;20110;-58
2023/10/08 02:04:07;;;;;;;5.35;1.80;;;19.90;73.20;;;;;;5089967;28;20055;-58
2023/10/08 02:06:34;;;;;;;7.60;1.90;;;20.00;73.20;;;;;;5090080;28;20095;-59
2023/10/08 02:09:07;;;;;;;5.55;1.48;;;19.90;72.80;;;;;;5084155;28;20021;-58
2023/10/08 02:11:53;;;;;;;4.78;1.90;;;20.00;73.00;;;;;;5087019;28;20085;-59
2023/10/08 02:14:22;;;;;;;6.03;1.60;;;19.90;72.90;;;;;;5088717;28;20510;-57
2023/10/08 02:16:49;;;;;;;5.40;1.98;;;19.90;73.00;;;;;;5084242;28;20103;-59
2023/10/08 02:19:18;;;;;;;5.55;1.63;;;19.90;72.70;;;;;;5091872;28;20111;-57
2023/10/08 02:21:47;;;;;;;9.60;2.00;;;19.90;72.90;;;;;;5073730;28;20081;-56
2023/10/08 02:24:13;;;;;;;8.35;2.28;;;19.90;72.60;;;;;;5091537;28;20074;-58
2023/10/08 02:26:39;;;;;;;3.67;1.80;;;20.00;73.10;;;;;;5088842;28;20063;-59
2023/10/08 02:29:10;;;;;;;3.92;1.73;;;19.90;72.70;;;;;;5064176;28;20054;-58
2023/10/08 02:31:39;;;;;;;6.47;1.80;;;19.90;72.60;;;;;;5086289;28;20017;-58
2023/10/08 02:34:09;;;;;;;5.40;1.98;;;19.90;73.20;;;;;;5088072;28;20511;-58
2023/10/08 02:36:42;;;;;;;4.50;1.67;;;19.90;72.80;;;;;;5088128;28;20043;-56
2023/10/08 02:39:16;;;;;;;6.07;1.65;;;19.90;73.10;;;;;;5077710;28;20070;-54
2023/10/08 02:41:45;;;;;;;5.88;1.80;;;19.90;72.80;;;;;;5091272;28;20084;-58
2023/10/08 02:44:13;;;;;;;5.85;2.08;;;19.90;72.50;;;;;;5082416;28;20024;-57
2023/10/08 02:46:51;;;;;;;5.40;1.75;;;19.90;72.50;;;;;;5083232;28;20400;-56
2023/10/08 02:49:20;;;;;;;7.70;1.70;;;19.90;72.50;;;;;;5082069;28;20032;-56
2023/10/08 02:51:51;;;;;;;7.75;1.85;;;19.90;72.50;;;;;;5082006;28;20020;-58
2023/10/08 02:54:22;;;;;;;5.40;1.85;;;19.90;72.80;;;;;;5087302;28;20025;-58
2023/10/08 02:56:55;;;;;;;4.10;1.75;;;19.90;73.10;;;;;;5078805;28;20556;-56
2023/10/08 02:59:22;;;;;;;8.00;2.15;;;19.90;73.40;;;;;;5084653;28;20058;-58
2023/10/08 03:01:57;;;;;;;6.65;1.60;;;19.90;72.70;;;;;;5082381;28;20383;-55
2023/10/08 03:04:24;;;;;;;3.70;1.55;;;19.90;72.80;;;;;;5088051;28;20505;-57
2023/10/08 03:06:50;;;;;;;3.75;1.88;;;20.00;73.30;;;;;;5091238;28;20138;-59
2023/10/08 03:09:22;;;;;;;6.43;2.03;;;19.90;72.80;;;;;;5071946;28;20028;-56
2023/10/08 03:11:52;;;;;;;5.47;1.80;;;19.90;72.90;;;;;;5086752;28;20028;-56
2023/10/08 03:14:22;;;;;;;3.55;1.65;;;19.90;72.70;;;;;;5087806;28;20396;-58
2023/10/08 03:16:53;;;;;;;4.60;1.40;;;19.90;72.60;;;;;;5097744;28;20095;-56
2023/10/08 03:19:22;;;;;;;5.80;1.77;;;19.90;72.90;;;;;;5079593;28;20028;-58
2023/10/08 03:21:51;;;;;;;5.32;1.55;;;20.00;73.10;;;;;;5080461;28;20025;-58
2023/10/08 03:24:30;;;;;;;5.80;1.65;;;19.90;72.90;;;;;;5089460;28;20024;-56
2023/10/08 03:27:06;;;;;;;;;;;19.90;72.80;;;;;;5088251;28;20024;-58
2023/10/08 03:29:40;;;;;;;10.60;1.63;;;19.90;72.90;;;;;;5088402;28;19912;-56
2023/10/08 03:32:15;;;;;;;4.93;2.05;;;20.00;73.10;;;;;;5084307;28;20027;-56
2023/10/08 03:34:50;;;;;;;4.47;1.70;;;19.90;73.10;;;;;;5082761;28;20024;-56
2023/10/08 03:37:29;;;;;;;6.75;1.73;;;19.90;72.90;;;;;;5088144;28;20028;-52
2023/10/08 03:40:24;;;;;;;6.88;1.90;;;19.90;73.20;;;;;;5084806;28;20548;-55
2023/10/08 03:42:50;;;;;;;2.05;1.50;;;20.00;73.20;;;;;;5082397;28;20024;-55
2023/10/08 03:45:22;;;;;;;4.88;1.80;;;19.90;72.90;;;;;;5090069;28;20111;-56
2023/10/08 03:48:05;;;;;;;4.32;1.60;;;20.00;73.30;;;;;;5084647;28;20600;-56
2023/10/08 03:50:40;;;;;;;4.60;1.75;;;20.00;72.90;;;;;;5087099;28;20500;-55
2023/10/08 03:53:11;;;;;;;5.22;1.50;;;19.90;72.80;;;;;;5087911;28;20024;-56
2023/10/08 03:55:40;;;;;;;6.50;1.73;;;19.90;72.90;;;;;;5089415;28;20508;-54
2023/10/08 03:58:13;;;;;;;4.57;1.60;;;20.00;73.10;;;;;;5090835;28;20128;-54
2023/10/08 04:00:41;;;;;;;5.43;1.70;;;19.90;72.80;;;;;;5093948;28;20495;-57
2023/10/08 04:03:11;;;;;;;5.45;1.77;;;19.90;72.80;;;;;;5093448;28;20089;-59
2023/10/08 04:05:49;;;;;;;10.75;1.98;;;19.90;72.80;;;;;;5093548;28;20103;-58
2023/10/08 04:08:19;;;;;;;5.07;1.73;;;19.90;72.90;;;;;;5092178;28;20032;-58
2023/10/08 04:13:10;;;;;;;2.97;1.50;;;19.90;72.90;;;;;;5093249;28;20016;-59
2023/10/08 04:15:43;;;;;;;3.42;1.75;;;19.90;73.00;;;;;;5092219;28;20107;-56
2023/10/08 04:18:10;;;;;;;6.03;1.83;;;19.90;73.00;;;;;;5093557;28;20051;-56
2023/10/08 04:20:39;;;;;;;8.43;1.85;;;19.90;73.20;;;;;;5091470;28;20027;-56
2023/10/08 04:23:13;;;;;;;8.35;2.20;;;19.90;73.00;;;;;;5090141;28;20107;-50
2023/10/08 04:25:41;;;;;;;3.45;1.58;;;19.90;73.10;;;;;;5084465;28;20503;-56
2023/10/08 04:28:13;;;;;;;5.88;2.53;;;19.90;73.30;;;;;;5087936;28;20024;-52
2023/10/08 04:30:41;;;;;;;4.93;1.63;;;19.90;73.40;;;;;;5092064;28;20424;-55
2023/10/08 04:33:10;;;;;;;4.78;1.83;;;19.90;73.30;;;;;;5091481;28;20460;-55
2023/10/08 04:35:47;;;;;;;4.00;1.75;;;19.90;73.60;;;;;;5091822;28;20141;-58
2023/10/08 04:38:18;;;;;;;4.72;1.70;;;19.90;73.40;;;;;;5092836;28;20047;-56
2023/10/08 04:40:48;;;;;;;4.40;1.75;;;19.90;73.40;;;;;;5088504;28;20032;-57
2023/10/08 04:43:30;;;;;;;4.80;1.60;;;19.90;73.10;;;;;;5087304;28;20043;-54
2023/10/08 04:45:57;;;;;;;2.92;1.50;;;19.90;73.20;;;;;;5085850;28;20046;-57
2023/10/08 04:48:24;;;;;;;7.07;2.00;;;19.90;73.20;;;;;;5092278;28;20028;-57
2023/10/08 04:50:58;;;;;;;3.30;1.80;;;19.90;73.20;;;;;;5091158;28;20103;-57
2023/10/08 04:53:40;;;;;;;3.33;1.52;;;19.80;73.10;;;;;;5090001;28;20046;-57
2023/10/08 04:56:16;;;;;;;7.78;1.83;;;19.90;73.10;;;;;;5082760;28;20039;-57
2023/10/08 04:58:48;;;;;;;4.43;2.22;;;19.80;73.10;;;;;;5092958;28;20449;-57
2023/10/08 05:01:38;;;;;;;3.35;1.50;;;19.80;73.10;;;;;;5087823;28;20100;-56
2023/10/08 05:17:10;;;;;;;4.05;1.65;;;19.90;72.50;;;;;;5085585;28;20039;-55
2023/10/08 05:19:50;;;;;;;4.78;1.60;;;19.90;73.00;;;;;;5082546;28;20025;-57
2023/10/08 05:23:16;;;;;;;5.93;1.90;;;19.90;72.90;;;;;;5087365;28;20060;-56
2023/10/08 05:57:07;;;;;;;5.38;2.10;;;20.00;72.40;;;;;;5078293;28;20357;-64
2023/10/08 05:59:39;;;;;;;3.97;1.70;;;20.00;72.00;;;;;;5088750;28;20027;-64
2023/10/08 06:02:27;;;;;;;5.13;2.00;;;20.00;72.10;;;;;;5083406;28;20028;-64
2023/10/08 06:13:16;;;;;;;4.13;1.55;;;20.10;71.90;;;;;;5088193;28;20020;-64
2023/10/08 06:15:48;;;;;;;3.45;1.58;;;20.10;71.90;;;;;;5089888;28;20016;-64
2023/10/08 06:18:18;;;;;;;4.35;1.75;;;20.10;71.80;;;;;;5091703;28;20483;-64
2023/10/08 06:20:48;;;;;;;4.57;2.00;;;20.10;72.10;;;;;;5084478;28;20032;-64
2023/10/08 06:23:18;;;;;;;6.53;1.80;;;20.10;72.10;;;;;;5091630;28;20377;-64
2023/10/08 06:25:45;;;;;;;6.00;1.83;;;20.10;71.60;;;;;;5088761;28;20039;-64
2023/10/08 06:28:18;;;;;;;5.10;1.70;;;20.10;71.60;;;;;;5087323;28;20035;-64
2023/10/08 06:30:44;;;;;;;8.80;2.08;;;20.10;71.90;;;;;;5091466;28;20036;-64
2023/10/08 06:33:10;;;;;;;6.20;1.90;;;20.10;71.80;;;;;;5089447;28;20016;-64
2023/10/08 06:35:36;;;;;;;4.88;1.80;;;20.10;71.60;;;;;;5089911;28;20024;-64
2023/10/08 06:38:07;;;;;;;7.93;2.00;;;20.10;71.70;;;;;;5087225;28;20028;-64
2023/10/08 06:43:11;;;;;;;;;;;20.10;71.90;;;;;;5090064;28;20031;-64
2023/10/08 06:45:39;;;;;;;5.22;1.80;;;20.10;72.00;;;;;;5088135;28;19995;-64
2023/10/08 06:48:06;;;;;;;2.80;1.50;;;20.10;71.40;;;;;;5086364;28;20035;-65
2023/10/08 06:50:35;;;;;;;6.78;2.10;;;20.10;71.30;;;;;;5091238;28;20047;-65
2023/10/08 06:53:07;;;;;;;5.03;2.00;;;20.10;71.20;;;;;;5090989;28;20016;-65
2023/10/08 06:55:37;;;;;;;4.80;1.90;;;20.10;71.50;;;;;;5087749;28;20507;-63
2023/10/08 06:58:08;;;;;;;4.75;1.40;;;20.10;72.20;;;;;;5089823;28;20521;-64
2023/10/08 07:00:39;;;;;;;5.85;1.70;;;20.10;72.20;;;;;;5091022;28;20056;-64
2023/10/08 07:03:07;;;;;;;3.92;1.80;;;20.10;71.70;;;;;;5090821;28;20078;-64
2023/10/08 07:05:36;;;;;;;5.45;2.10;;;20.10;71.80;;;;;;5090784;28;20036;-64
2023/10/08 07:08:06;;;;;;;8.43;2.13;;;20.10;71.20;;;;;;5080365;28;20020;-64
2023/10/08 07:10:34;;;;;;;5.10;1.60;;;20.10;71.30;;;;;;5089494;28;20051;-64
2023/10/08 07:13:02;;;;;;;3.70;1.77;;;20.10;71.50;;;;;;5085595;28;20514;-64
2023/10/08 07:15:30;;;;;;;3.20;1.80;;;20.10;71.60;;;;;;5089475;28;20024;-64
2023/10/08 07:17:57;;;;;;;4.13;1.73;;;20.10;71.50;;;;;;5090706;28;20028;-64
2023/10/08 07:20:23;;;;;;;3.35;1.85;;;20.10;71.10;;;;;;5089570;28;20035;-64
2023/10/08 07:22:54;;;;;;;4.63;1.90;;;20.10;71.10;;;;;;5085426;28;20027;-65
2023/10/08 07:25:23;;;;;;;4.28;1.75;;;20.10;71.60;;;;;;5090901;28;20527;-65
2023/10/08 07:27:48;;;;;;;5.13;1.43;;;20.10;72.10;;;;;;5087986;28;20028;-64
2023/10/08 07:30:26;;;;;;;4.38;1.75;;;20.10;71.20;;;;;;5089757;28;20032;-64
2023/10/08 07:32:58;;;;;;;4.38;1.88;;;20.10;71.30;;;;;;5082164;28;20024;-64
2023/10/08 07:35:25;;;;;;;6.35;2.00;;;20.10;72.20;;;;;;5090913;28;20089;-64
2023/10/08 07:37:53;;;;;;;5.13;1.90;;;20.10;71.60;;;;;;5078332;28;20028;-64
2023/10/08 07:40:20;;;;;;;4.82;1.52;;;20.10;72.20;;;;;;5087604;28;20511;-64
2023/10/08 07:42:51;;;;;;;6.10;1.77;;;20.10;72.70;;;;;;5079143;28;20043;-64
2023/10/08 07:45:18;;;;;;;4.43;1.70;;;20.20;73.20;;;;;;5086103;28;20549;-64
2023/10/08 07:47:44;;;;;;;7.43;2.08;;;20.20;73.30;;;;;;5087137;28;20077;-65
2023/10/08 07:50:13;;;;;;;4.93;1.67;;;20.20;73.50;;;;;;5089490;28;20057;-64
2023/10/08 07:52:44;;;;;;;3.47;1.77;;;20.20;73.70;;;;;;5082804;28;20086;-64
2023/10/08 07:55:17;;;;;;;7.40;1.70;;;20.20;73.80;;;;;;5088018;28;20446;-65
2023/10/08 07:57:42;;;;;;;6.95;1.75;;;20.30;74.00;;;;;;5084112;28;20380;-65
2023/10/08 08:00:18;;;;;;;5.57;1.83;;;20.30;74.20;;;;;;5083820;28;20068;-64
2023/10/08 08:02:44;;;;;;;5.75;1.88;;;20.30;74.20;;;;;;5087223;28;20078;-64
2023/10/08 08:05:16;;;;;;;4.97;1.95;;;20.30;74.30;;;;;;5085785;28;20081;-65
2023/10/08 08:07:46;;;;;;;3.85;1.75;;;20.30;74.40;;;;;;5071180;28;20040;-64
2023/10/08 08:10:12;;;;;;;4.45;1.80;;;20.30;74.40;;;;;;5090849;28;20399;-65
2023/10/08 08:12:38;;;;;;;5.38;1.92;;;20.30;74.50;;;;;;5084158;28;20032;-65
2023/10/08 08:15:17;;;;;;;4.20;2.00;;;20.30;74.60;;;;;;5090046;28;20016;-65
2023/10/08 08:17:44;;;;;;;5.65;1.77;;;20.30;74.40;;;;;;5088822;28;20480;-64
2023/10/08 08:20:19;;;;;;;6.22;1.90;;;20.40;74.60;;;;;;5089769;28;20063;-64
2023/10/08 08:22:54;;;;;;;5.43;1.90;;;20.30;74.70;;;;;;5085514;28;20395;-64
2023/10/08 08:25:42;;;;;;;5.05;1.98;;;20.30;74.70;;;;;;5084199;28;20024;-65
2023/10/08 08:28:16;;;;;;;5.82;1.95;;;20.30;74.70;;;;;;5087856;28;20024;-64
2023/10/08 08:30:46;;;;;;;4.43;1.55;;;20.40;74.70;;;;;;5087000;28;20567;-64
2023/10/08 08:33:16;;;;;;;3.83;1.80;;;20.30;74.70;;;;;;5087344;28;20080;-64
2023/10/08 08:35:42;;;;;;;2.67;1.45;;;20.40;74.60;;;;;;5088896;28;20024;-64
2023/10/08 08:38:09;;;;;;;5.18;1.80;;;20.40;74.80;;;;;;5092100;28;20173;-64
2023/10/08 08:40:35;;;;;;;4.00;1.88;;;20.40;74.70;;;;;;5091007;28;20048;-65
2023/10/08 08:43:05;;;;;;;5.80;1.98;;;20.40;74.80;;;;;;5088375;28;20063;-64
2023/10/08 08:45:34;;;;;;;5.90;1.75;;;20.40;74.80;;;;;;5093071;28;20028;-65
2023/10/08 08:48:00;;;;;;;4.97;1.70;;;20.40;74.80;;;;;;5094320;28;20067;-64
2023/10/08 08:50:27;;;;;;;6.15;1.77;;;20.40;74.90;;;;;;5086990;28;20058;-64
2023/10/08 08:52:53;;;;;;;7.30;2.20;;;20.40;75.00;;;;;;5087792;28;20248;-65
2023/10/08 08:55:20;;;;;;;5.13;2.00;;;20.40;74.80;;;;;;5092712;28;20024;-64
2023/10/08 08:57:53;;;;;;;7.05;2.05;;;20.40;74.80;;;;;;5091091;28;20068;-64
2023/10/08 09:00:20;;;;;;;5.32;2.03;;;20.40;74.90;;;;;;5089877;28;20099;-64
2023/10/08 09:02:47;;;;;;;8.27;1.90;;;20.40;74.80;;;;;;5091228;28;20514;-64
2023/10/08 09:05:35;;;;;;;9.68;2.10;;;20.40;74.90;;;;;;5073841;28;20116;-64
2023/10/08 09:08:06;;;;;;;3.13;1.60;;;20.40;75.10;;;;;;5073179;28;20037;-64
2023/10/08 09:10:50;;;;;;;4.32;1.92;;;20.40;74.80;;;;;;5091037;28;20024;-64
2023/10/08 09:13:21;;;;;;;5.50;1.83;;;20.40;75.00;;;;;;5089268;28;20107;-64
2023/10/08 09:15:47;;;;;;;6.32;1.95;;;20.40;75.00;;;;;;5082051;28;20028;-64
2023/10/08 09:18:14;;;;;;;4.90;2.15;;;20.40;74.90;;;;;;5093861;28;20060;-64
2023/10/08 09:20:43;;;;;;;6.18;1.92;;;20.40;75.00;;;;;;5089648;28;20028;-64
2023/10/08 09:23:12;;;;;;;7.50;2.00;;;20.40;74.80;;;;;;5093591;28;20031;-64
2023/10/08 09:25:43;;;;;;;6.00;2.17;;;20.30;72.60;;;;;;5090318;28;20028;-66
2023/10/08 09:28:12;;;;;;;3.17;1.65;;;20.20;68.50;;;;;;5083430;28;20395;-66
2023/10/08 09:30:39;;;;;;;4.40;1.60;;;20.10;64.20;;;;;;5070169;28;20035;-65
2023/10/08 09:33:10;;;;;;;6.18;1.65;;;20.00;61.40;;;;;;5081787;28;20024;-66
2023/10/08 09:35:36;;;;;;;4.72;1.65;;;19.90;60.80;;;;;;5093501;28;20558;-65
2023/10/08 09:38:09;;;;;;;3.28;1.50;;;19.90;59.30;;;;;;5093596;28;20030;-66
2023/10/08 09:40:44;;;;;;;8.07;1.90;;;19.90;59.10;;;;;;5093397;28;20032;-66
2023/10/08 09:43:10;;;;;;;4.38;1.65;;;19.90;61.00;;;;;;5093197;28;20536;-67
2023/10/08 09:45:40;;;;;;;5.18;1.35;;;20.00;58.90;;;;;;5091189;28;20439;-65
2023/10/08 09:48:11;;;;;;;8.27;1.92;;;20.00;59.00;;;;;;5091485;28;20051;-67
2023/10/08 09:50:41;;;;;;;6.43;1.80;;;20.10;63.20;;;;;;5092323;28;20027;-66
2023/10/08 09:53:17;;;;;;;11.00;1.55;;;20.20;64.50;;;;;;5093024;28;20016;-68
2023/10/08 09:55:54;;;;;;;9.82;1.58;;;20.20;64.60;;;;;;5093212;28;20024;-65
2023/10/08 09:58:22;;;;;;;4.47;2.00;;;20.40;66.70;;;;;;5093142;28;20024;-66
2023/10/08 10:00:49;;;;;;;7.07;2.10;;;20.50;65.90;;;;;;5092590;28;20032;-66
2023/10/08 10:03:18;;;;;;;16.30;2.25;;;20.50;67.50;;;;;;5092472;28;20059;-66
2023/10/08 10:05:44;;;;;;;4.95;1.63;;;20.60;66.90;;;;;;5091437;28;20399;-66
2023/10/08 10:08:10;;;;;;;5.68;2.50;;;20.60;67.60;;;;;;5092231;28;20032;-67
2023/10/08 10:10:43;;;;;;;10.52;2.28;;;20.60;68.60;;;;;;5092347;28;20057;-66
2023/10/08 10:13:12;;;;;;;6.70;2.10;;;20.60;67.90;;;;;;5092045;28;20500;-66
2023/10/08 10:15:39;;;;;;;11.60;2.42;;;20.60;67.50;;;;;;5070191;28;20133;-66
2023/10/08 10:18:13;;;;;;;8.95;1.90;;;20.60;64.40;;;;;;5084905;28;20024;-67
2023/10/08 10:20:50;;;;;;;3.38;1.65;;;20.60;64.00;;;;;;5092283;28;20080;-63
2023/10/08 10:23:36;;;;;;;9.88;1.92;;;20.60;62.30;;;;;;5089455;28;20029;-62
2023/10/08 10:26:03;;;;;;;10.65;1.60;;;20.60;60.50;;;;;;5087716;28;20024;-65
2023/10/08 10:28:29;;;;;;;7.93;1.63;;;20.50;60.70;;;;;;5087686;28;20028;-65
2023/10/08 10:30:56;;;;;;;44.20;15.82;;;20.40;60.70;;;;;;5091177;28;20380;-65
2023/10/08 10:33:31;;;;;;;89.55;47.63;;;20.40;61.60;;;;;;5089796;28;20020;-64
2023/10/08 10:35:56;;;;;;;181.93;106.15;;;20.50;61.80;;;;;;5084122;28;20458;-65
2023/10/08 10:38:26;;;;;;;182.23;89.50;;;20.60;63.40;;;;;;5091816;28;20035;-65
2023/10/08 10:40:58;;;;;;;137.30;61.00;;;20.60;64.60;;;;;;5092252;28;20502;-65
2023/10/08 10:43:32;;;;;;;65.30;30.33;;;20.50;63.90;;;;;;5090797;28;20118;-65
2023/10/08 10:46:30;;;;;;;55.65;26.30;;;20.60;63.20;;;;;;5084936;28;20028;-65
2023/10/08 10:51:33;;;;;;;44.15;22.33;;;20.50;63.70;;;;;;5090527;28;20046;-66
2023/10/08 10:54:19;;;;;;;47.42;21.77;;;20.50;62.70;;;;;;5082906;28;20020;-65
2023/10/08 10:56:47;;;;;;;49.05;22.05;;;20.50;64.10;;;;;;5086925;28;20024;-66
2023/10/08 10:59:22;;;;;;;41.90;21.20;;;20.50;63.60;;;;;;5071209;28;20508;-65
2023/10/08 11:01:52;;;;;;;40.67;18.60;;;20.60;63.70;;;;;;5090285;28;20399;-65
2023/10/08 11:04:28;;;;;;;36.35;17.17;;;20.60;63.50;;;;;;5087461;28;20028;-65
2023/10/08 11:06:58;;;;;;;31.05;13.95;;;20.50;65.20;;;;;;5083008;28;20076;-67
2023/10/08 11:09:44;;;;;;;28.13;10.77;;;20.50;63.80;;;;;;5091514;28;20039;-66
2023/10/08 20:14:36;;;;;;;30.00;4.47;;;20.10;64.30;;;;;;5128708;27;20378;-59
2023/10/08 20:17:08;;;;;;;17.95;3.22;;;20.50;68.00;;;;;;5107334;28;20431;-59
2023/10/08 20:19:35;;;;;;;11.90;3.25;;;20.50;67.50;;;;;;5102305;28;20119;-55
2023/10/08 20:22:01;;;;;;;13.40;3.42;;;20.60;67.20;;;;;;5108420;28;20103;-55
2023/10/08 20:24:27;;;;;;;10.40;3.63;;;20.60;66.60;;;;;;5102157;28;20107;-59
2023/10/08 20:26:54;;;;;;;15.30;4.10;;;20.60;67.80;;;;;;5136665;22;20043;-54
2023/10/08 20:29:21;;;;;;;15.38;3.35;;;20.60;68.00;;;;;;5129039;27;20059;-54
2023/10/08 20:31:48;;;;;;;8.57;3.30;;;20.60;69.10;;;;;;5107167;28;20024;-56
2023/10/08 20:34:15;;;;;;;20.98;4.78;;;20.60;68.70;;;;;;5110289;28;20053;-55
2023/10/08 20:36:41;;;;;;;12.70;3.53;;;20.60;69.10;;;;;;5125770;27;20386;-55
2023/10/08 20:39:10;;;;;;;18.60;3.40;;;20.60;68.70;;;;;;5123530;28;20032;-54
2023/10/08 20:41:37;;;;;;;11.10;3.78;;;20.60;69.30;;;;;;5125461;28;20039;-56
2023/10/08 20:44:03;;;;;;;13.77;3.30;;;20.60;69.50;;;;;;5107191;28;20070;-55
2023/10/08 20:46:30;;;;;;;9.77;3.40;;;20.50;69.40;;;;;;5125088;28;20450;-52
2023/10/08 20:48:56;;;;;;;13.48;3.45;;;20.50;69.30;;;;;;5107266;28;20034;-56
2023/10/08 20:51:23;;;;;;;12.02;2.95;;;20.40;68.80;;;;;;5108305;28;20027;-55
2023/10/08 20:53:50;;;;;;;9.63;3.63;;;20.50;69.10;;;;;;5126359;28;20375;-53
2023/10/08 20:56:15;;;;;;;14.05;3.28;;;20.40;68.60;;;;;;5125393;28;20031;-52
2023/10/08 20:58:42;;;;;;;7.13;3.30;;;20.40;68.90;;;;;;5126138;28;20549;-55
2023/10/08 21:01:10;;;;;;;10.65;3.58;;;20.40;68.80;;;;;;5125886;27;21184;-55
2023/10/08 21:03:36;;;;;;;7.90;3.10;;;20.40;68.30;;;;;;5107264;28;20039;-56
2023/10/08 21:06:02;;;;;;;7.88;3.10;;;20.40;68.40;;;;;;5125206;28;20111;-57
2023/10/08 21:08:29;;;;;;;7.80;2.85;;;20.40;68.40;;;;;;5125630;28;20538;-55
2023/10/08 21:10:55;;;;;;;8.90;3.67;;;20.40;68.40;;;;;;5124599;28;20067;-53
2023/10/08 21:13:21;;;;;;;6.35;2.95;;;20.40;68.00;;;;;;5123564;28;20638;-54
2023/10/08 21:15:47;;;;;;;11.75;3.15;;;20.40;68.30;;;;;;5110029;28;20039;-54
2023/10/08 21:18:13;;;;;;;11.40;2.90;;;20.40;68.10;;;;;;5111711;28;20496;-54
2023/10/08 21:20:39;;;;;;;11.23;2.92;;;20.40;67.80;;;;;;5111820;28;20106;-53
2023/10/08 21:23:05;;;;;;;8.32;3.33;;;20.40;67.80;;;;;;5111895;28;20106;-54
2023/10/08 21:25:32;;;;;;;7.53;2.83;;;20.40;67.60;;;;;;5107510;28;20027;-54
2023/10/08 21:27:58;;;;;;;7.90;2.95;;;20.40;68.00;;;;;;5111213;28;20026;-51
2023/10/08 21:30:27;;;;;;;10.10;2.78;;;20.40;67.70;;;;;;5110871;28;20047;-54
2023/10/08 21:32:55;;;;;;;10.60;2.80;;;20.40;68.00;;;;;;5111319;28;20027;-56
2023/10/08 21:35:21;;;;;;;7.70;2.70;;;20.40;68.00;;;;;;5111588;28;20056;-57
2023/10/08 21:37:49;;;;;;;7.50;2.85;;;20.40;67.90;;;;;;5110717;28;20102;-57
2023/10/08 21:40:17;;;;;;;7.03;2.72;;;20.40;67.60;;;;;;5111711;28;20038;-57
2023/10/08 21:42:46;;;;;;;7.97;2.92;;;20.40;67.70;;;;;;5109152;28;20024;-57
2023/10/08 21:45:13;;;;;;;8.60;3.47;;;20.40;67.90;;;;;;5110874;28;20024;-57
2023/10/08 21:47:41;;;;;;;6.68;3.25;;;20.40;67.50;;;;;;5109010;28;20281;-57
2023/10/08 21:50:11;;;;;;;5.35;2.58;;;20.40;67.90;;;;;;5097865;28;20028;-53
2023/10/08 21:52:42;;;;;;;7.30;2.50;;;20.40;68.20;;;;;;5103516;28;20024;-54
2023/10/08 21:55:09;;;;;;;8.80;3.08;;;20.40;68.10;;;;;;5110121;28;20472;-57
2023/10/08 21:57:38;;;;;;;11.88;2.65;;;20.40;68.30;;;;;;5113365;28;20443;-56
2023/10/08 22:02:47;;;;;;;17.25;3.40;;;20.50;68.20;;;;;;5112995;28;20024;-57
2023/10/08 22:05:16;;;;;;;15.48;3.30;;;20.50;68.30;;;;;;5113507;28;20465;-57
2023/10/08 22:07:42;;;;;;;11.82;2.67;;;20.40;67.70;;;;;;5113327;28;20052;-54
2023/10/08 22:10:11;;;;;;;10.10;2.80;;;20.40;67.80;;;;;;5113315;28;20363;-54
2023/10/08 22:12:47;;;;;;;15.13;3.10;;;20.40;67.80;;;;;;5113014;28;20027;-57
2023/10/08 22:15:17;;;;;;;7.68;3.08;;;20.40;68.00;;;;;;5113238;28;20062;-57
2023/10/08 22:17:44;;;;;;;17.38;3.08;;;20.40;67.30;;;;;;5109754;28;20463;-57
2023/10/08 22:20:15;;;;;;;12.55;3.08;;;20.40;67.30;;;;;;5104022;28;20444;-56
2023/10/08 22:22:41;;;;;;;11.70;3.05;;;20.40;67.30;;;;;;5106867;28;20024;-57
2023/10/08 22:25:10;;;;;;;20.67;3.05;;;20.40;67.60;;;;;;5107278;28;20429;-57
2023/10/08 22:27:38;;;;;;;15.38;3.28;;;20.40;67.80;;;;;;5108142;28;20367;-57
2023/10/08 22:30:22;;;;;;;8.40;2.70;;;20.40;67.50;;;;;;5094046;28;20493;-57
2023/10/08 22:32:51;;;;;;;10.00;3.00;;;20.30;67.20;;;;;;5104279;28;20036;-57
2023/10/08 22:35:17;;;;;;;15.57;3.17;;;20.30;67.20;;;;;;5108366;28;20055;-57
2023/10/08 22:38:01;;;;;;;17.58;2.67;;;20.30;67.20;;;;;;5112408;28;20066;-55
2023/10/08 22:43:15;;;;;;;11.05;2.85;;;20.30;67.00;;;;;;5104816;28;20514;-54
2023/10/08 22:45:50;;;;;;;11.88;2.85;;;20.30;67.00;;;;;;5110094;28;20135;-57
2023/10/08 22:48:24;;;;;;;13.65;2.90;;;20.30;67.00;;;;;;5111794;28;20028;-57
2023/10/08 22:50:52;;;;;;;11.23;2.67;;;20.30;67.00;;;;;;5091600;28;20080;-57
2023/10/08 22:53:19;;;;;;;8.88;3.45;;;20.30;67.00;;;;;;5108519;28;20106;-52
2023/10/08 22:55:45;;;;;;;12.18;3.08;;;20.30;66.80;;;;;;5108593;28;20035;-57
2023/10/08 22:58:11;;;;;;;5.30;2.80;;;20.30;66.80;;;;;;5102748;28;20103;-57
2023/10/08 23:00:40;;;;;;;8.75;2.83;;;20.30;66.80;;;;;;5107501;28;20035;-53
2023/10/08 23:03:07;;;;;;;8.18;2.85;;;20.30;66.70;;;;;;5107400;28;20059;-53
2023/10/08 23:05:36;;;;;;;10.40;3.35;;;20.30;66.60;;;;;;5109033;28;20028;-56
2023/10/08 23:08:03;;;;;;;6.03;2.72;;;20.30;66.60;;;;;;5107419;28;20376;-57
2023/10/08 23:10:32;;;;;;;10.13;2.97;;;20.30;66.70;;;;;;5102008;28;20547;-55